createdAt,value
2022-10-02T00:02:15.358Z,21.90
2022-10-02T00:04:47.566Z,21.90
2022-10-02T00:07:14.607Z,21.90
2022-10-02T00:09:43.655Z,21.90
2022-10-02T00:12:11.790Z,21.90
2022-10-02T00:14:39.791Z,21.90
2022-10-02T00:17:06.631Z,21.90
2022-10-02T00:19:33.269Z,21.90
2022-10-02T00:22:03.970Z,22.30
2022-10-02T00:24:43.849Z,21.70
2022-10-02T00:27:15.349Z,21.80
2022-10-02T00:29:52.577Z,21.90
2022-10-02T00:32:22.197Z,21.80
2022-10-02T00:34:51.941Z,21.90
2022-10-02T00:37:20.791Z,21.80
2022-10-02T00:39:56.285Z,21.90
2022-10-02T00:42:29.122Z,21.80
2022-10-02T00:45:14.979Z,21.80
2022-10-02T00:47:56.922Z,21.80
2022-10-02T00:50:26.575Z,21.80
2022-10-02T00:53:09.527Z,21.80
2022-10-02T00:55:45.223Z,21.90
2022-10-02T00:58:21.195Z,21.80
2022-10-02T01:01:08.052Z,21.90
2022-10-02T01:03:46.114Z,21.80
2022-10-02T01:06:12.733Z,21.80
2022-10-02T01:08:39.337Z,21.80
2022-10-02T01:11:06.596Z,21.80
2022-10-02T01:13:33.238Z,21.80
2022-10-02T01:16:03.329Z,21.80
2022-10-02T01:18:30.886Z,21.80
2022-10-02T01:21:05.190Z,21.80
2022-10-02T01:23:48.946Z,21.80
2022-10-02T01:26:15.806Z,21.90
2022-10-02T01:28:42.672Z,21.80
2022-10-02T01:31:10.977Z,21.80
2022-10-02T01:33:40.490Z,21.80
2022-10-02T01:36:07.937Z,21.80
2022-10-02T01:38:34.766Z,21.80
2022-10-02T01:41:01.378Z,21.80
2022-10-02T01:43:39.914Z,21.90
2022-10-02T01:46:29.961Z,21.80
2022-10-02T01:49:15.062Z,21.80
2022-10-02T01:51:47.684Z,21.80
2022-10-02T01:54:32.612Z,21.80
2022-10-02T01:57:17.984Z,21.70
2022-10-02T01:59:44.555Z,21.80
2022-10-02T02:02:33.781Z,21.70
2022-10-02T02:05:05.789Z,21.70
2022-10-02T02:07:35.309Z,21.70
2022-10-02T02:10:21.423Z,21.70
2022-10-02T02:13:05.852Z,21.70
2022-10-02T02:15:39.059Z,21.70
2022-10-02T02:18:16.645Z,21.70
2022-10-02T02:20:48.378Z,21.90
2022-10-02T02:23:16.479Z,21.70
2022-10-02T02:25:45.151Z,21.70
2022-10-02T02:28:13.976Z,21.70
2022-10-02T02:30:42.993Z,21.70
2022-10-02T02:33:22.982Z,21.70
2022-10-02T02:35:51.996Z,21.70
2022-10-02T02:38:28.673Z,21.70
2022-10-02T02:40:58.040Z,21.70
2022-10-02T02:43:28.246Z,21.70
2022-10-02T02:45:56.341Z,21.70
2022-10-02T02:48:26.594Z,21.70
2022-10-02T02:50:57.491Z,21.70
2022-10-02T02:53:26.384Z,21.70
2022-10-02T02:55:58.385Z,21.70
2022-10-02T02:58:30.164Z,21.70
2022-10-02T03:00:56.868Z,21.70
2022-10-02T03:03:23.719Z,21.70
2022-10-02T03:05:53.284Z,21.70
2022-10-02T03:08:24.395Z,21.70
2022-10-02T03:10:50.918Z,21.70
2022-10-02T03:13:17.491Z,21.70
2022-10-02T03:16:03.032Z,21.70
2022-10-02T03:18:37.084Z,21.70
2022-10-02T03:21:23.937Z,21.60
2022-10-02T03:23:53.817Z,21.70
2022-10-02T03:26:24.281Z,21.70
2022-10-02T03:28:56.968Z,21.60
2022-10-02T03:31:24.898Z,21.70
2022-10-02T03:33:53.689Z,21.70
2022-10-02T03:36:21.435Z,21.60
2022-10-02T03:39:00.689Z,21.70
2022-10-02T03:41:33.095Z,21.60
2022-10-02T03:43:59.748Z,21.60
2022-10-02T03:46:26.357Z,21.60
2022-10-02T03:48:52.949Z,21.70
2022-10-02T03:51:19.528Z,21.60
2022-10-02T03:53:46.188Z,21.60
2022-10-02T03:56:17.660Z,21.60
2022-10-02T03:58:46.718Z,21.60
2022-10-02T04:01:17.454Z,21.60
2022-10-02T04:03:49.196Z,21.70
2022-10-02T04:06:19.929Z,21.60
2022-10-02T04:09:04.540Z,21.60
2022-10-02T04:11:37.112Z,21.60
2022-10-02T04:14:16.012Z,21.60
2022-10-02T04:16:46.684Z,21.60
2022-10-02T04:19:25.280Z,21.70
2022-10-02T04:21:58.463Z,21.60
2022-10-02T04:24:39.059Z,21.50
2022-10-02T04:27:08.800Z,21.60
2022-10-02T04:29:38.383Z,21.60
2022-10-02T04:32:25.214Z,21.60
2022-10-02T04:34:52.213Z,21.60
2022-10-02T04:37:37.647Z,21.60
2022-10-02T04:40:06.739Z,21.60
2022-10-02T04:42:33.277Z,21.60
2022-10-02T04:45:20.142Z,21.60
2022-10-02T04:48:04.759Z,21.60
2022-10-02T04:50:57.872Z,21.60
2022-10-02T04:53:43.307Z,21.60
2022-10-02T04:56:09.894Z,21.60
2022-10-02T04:58:46.411Z,21.60
2022-10-02T05:01:13.103Z,21.60
2022-10-02T05:03:45.480Z,21.60
2022-10-02T05:06:20.318Z,21.60
2022-10-02T05:08:50.023Z,21.60
2022-10-02T05:11:16.585Z,21.60
2022-10-02T05:14:03.545Z,21.60
2022-10-02T05:16:30.155Z,21.60
2022-10-02T05:19:09.064Z,21.60
2022-10-02T05:21:38.712Z,21.50
2022-10-02T05:24:05.256Z,21.60
2022-10-02T05:26:43.204Z,21.60
2022-10-02T05:29:09.788Z,21.60
2022-10-02T05:31:54.959Z,21.50
2022-10-02T05:34:40.402Z,21.60
2022-10-02T05:37:21.383Z,21.60
2022-10-02T05:40:08.239Z,21.50
2022-10-02T05:42:45.294Z,21.60
2022-10-02T05:45:20.490Z,21.60
2022-10-02T05:47:48.379Z,21.60
2022-10-02T05:50:18.427Z,21.50
2022-10-02T05:52:57.331Z,21.60
2022-10-02T05:55:28.597Z,21.50
2022-10-02T05:57:58.018Z,21.60
2022-10-02T06:00:29.672Z,21.60
2022-10-02T06:03:01.643Z,21.60
2022-10-02T06:05:31.174Z,21.60
2022-10-02T06:07:59.632Z,21.60
2022-10-02T06:10:29.089Z,21.60
2022-10-02T06:12:58.570Z,21.60
2022-10-02T06:15:25.164Z,21.60
2022-10-02T06:17:54.974Z,21.60
2022-10-02T06:20:28.148Z,21.60
2022-10-02T06:23:06.720Z,21.60
2022-10-02T06:25:44.631Z,21.60
2022-10-02T06:28:14.120Z,21.60
2022-10-02T06:30:42.827Z,21.60
2022-10-02T06:33:15.382Z,21.60
2022-10-02T06:36:00.549Z,21.60
2022-10-02T06:38:45.725Z,21.70
2022-10-02T06:41:31.240Z,21.60
2022-10-02T06:44:08.082Z,21.70
2022-10-02T06:46:35.262Z,21.60
2022-10-02T06:49:14.651Z,21.60
2022-10-02T06:52:16.912Z,21.60
2022-10-02T06:54:53.730Z,21.60
2022-10-02T06:57:20.319Z,21.60
2022-10-02T06:59:49.777Z,21.60
2022-10-02T07:02:17.467Z,21.60
2022-10-02T07:04:49.473Z,21.70
2022-10-02T07:07:30.377Z,21.60
2022-10-02T07:10:03.074Z,21.70
2022-10-02T07:12:29.693Z,21.60
2022-10-02T07:15:15.270Z,21.70
2022-10-02T07:17:57.298Z,21.60
2022-10-02T07:20:35.568Z,21.70
2022-10-02T07:23:21.080Z,21.70
2022-10-02T07:25:47.662Z,21.60
2022-10-02T07:28:27.150Z,21.70
2022-10-02T07:30:53.790Z,21.70
2022-10-02T07:33:39.178Z,21.70
2022-10-02T07:36:26.032Z,21.70
2022-10-02T07:38:57.736Z,21.70
2022-10-02T07:41:27.347Z,21.70
2022-10-02T07:43:53.898Z,21.70
2022-10-02T07:46:29.411Z,21.70
2022-10-02T07:49:14.355Z,21.70
2022-10-02T07:51:48.513Z,21.70
2022-10-02T07:54:32.992Z,21.70
2022-10-02T07:57:06.374Z,21.70
2022-10-02T07:59:39.515Z,21.80
2022-10-02T08:02:08.056Z,21.80
2022-10-02T08:04:37.245Z,21.80
2022-10-02T08:07:04.931Z,21.80
2022-10-02T08:09:38.779Z,21.80
2022-10-02T08:12:09.330Z,21.80
2022-10-02T08:14:42.954Z,21.80
2022-10-02T08:17:25.361Z,21.80
2022-10-02T08:19:52.214Z,21.90
2022-10-02T08:22:21.834Z,21.80
2022-10-02T08:24:54.019Z,21.80
2022-10-02T08:27:40.836Z,21.80
2022-10-02T08:30:11.728Z,21.80
2022-10-02T08:32:38.334Z,21.80
2022-10-02T08:35:18.477Z,21.80
2022-10-02T08:38:05.726Z,21.80
2022-10-02T08:40:38.148Z,21.90
2022-10-02T08:43:10.938Z,21.80
2022-10-02T08:45:47.755Z,21.90
2022-10-02T08:48:17.582Z,21.80
2022-10-02T08:50:59.344Z,21.90
2022-10-02T08:53:38.283Z,21.90
2022-10-02T08:56:19.983Z,21.80
2022-10-02T08:58:46.972Z,21.90
2022-10-02T09:01:28.512Z,21.90
2022-10-02T09:03:58.831Z,21.80
2022-10-02T09:06:54.636Z,21.90
2022-10-02T09:09:27.259Z,21.90
2022-10-02T09:11:53.881Z,22.00
2022-10-02T09:14:20.979Z,21.90
2022-10-02T09:16:56.771Z,22.00
2022-10-02T09:19:26.238Z,21.90
2022-10-02T09:21:56.122Z,22.00
2022-10-02T09:24:31.933Z,22.00
2022-10-02T09:27:11.087Z,22.00
2022-10-02T09:29:37.686Z,22.00
2022-10-02T09:32:13.243Z,22.00
2022-10-02T09:35:02.893Z,22.00
2022-10-02T09:37:32.636Z,22.00
2022-10-02T09:40:02.241Z,21.90
2022-10-02T09:42:47.705Z,22.00
2022-10-02T09:45:36.356Z,21.90
2022-10-02T09:48:15.016Z,22.00
2022-10-02T09:50:47.780Z,22.00
2022-10-02T09:53:14.338Z,22.00
2022-10-02T09:55:53.323Z,22.00
2022-10-02T09:58:51.321Z,22.00
2022-10-02T10:01:18.035Z,22.10
2022-10-02T10:03:44.701Z,22.00
2022-10-02T10:06:30.014Z,22.10
2022-10-02T10:09:19.740Z,22.00
2022-10-02T10:12:05.353Z,22.00
2022-10-02T10:14:45.226Z,22.10
2022-10-02T10:17:30.693Z,22.10
2022-10-02T10:20:16.513Z,22.10
2022-10-02T10:22:43.166Z,22.00
2022-10-02T10:25:28.330Z,22.10
2022-10-02T10:28:13.364Z,22.10
2022-10-02T10:31:03.320Z,22.10
2022-10-02T10:33:48.471Z,22.00
2022-10-02T10:36:49.130Z,22.00
2022-10-02T10:39:34.281Z,22.00
2022-10-02T10:42:20.807Z,22.00
2022-10-02T10:45:08.170Z,22.10
2022-10-02T10:47:34.785Z,22.00
2022-10-02T10:50:20.202Z,22.00
2022-10-02T10:52:56.038Z,22.00
2022-10-02T10:55:31.749Z,22.00
2022-10-02T10:58:01.392Z,22.00
2022-10-02T11:00:52.834Z,22.10
2022-10-02T11:03:29.296Z,22.00
2022-10-02T11:06:14.536Z,22.10
2022-10-02T11:08:50.388Z,22.20
2022-10-02T11:11:16.957Z,22.20
2022-10-02T11:14:03.215Z,22.20
2022-10-02T11:16:39.135Z,22.20
2022-10-02T11:19:21.343Z,22.20
2022-10-02T11:22:07.407Z,22.20
2022-10-02T11:24:34.014Z,22.10
2022-10-02T11:27:03.351Z,22.20
2022-10-02T11:29:48.886Z,22.20
2022-10-02T11:32:16.879Z,22.20
2022-10-02T11:35:02.066Z,22.20
2022-10-02T11:37:40.913Z,22.20
2022-10-02T11:40:31.077Z,22.20
2022-10-02T11:43:16.536Z,22.20
2022-10-02T11:46:01.811Z,22.20
2022-10-02T11:48:28.521Z,22.20
2022-10-02T11:50:58.186Z,22.30
2022-10-02T11:53:24.801Z,22.30
2022-10-02T11:55:51.367Z,22.40
2022-10-02T11:58:27.086Z,22.40
2022-10-02T12:01:07.930Z,22.40
2022-10-02T12:03:53.101Z,22.50
2022-10-02T12:06:39.051Z,22.50
2022-10-02T12:09:19.204Z,22.60
2022-10-02T12:11:59.073Z,22.60
2022-10-02T12:14:31.320Z,22.70
2022-10-02T12:17:16.604Z,22.70
2022-10-02T12:20:13.803Z,22.70
2022-10-02T12:23:08.140Z,22.70
2022-10-02T12:25:53.181Z,22.80
2022-10-02T12:28:21.285Z,22.80
2022-10-02T12:31:05.220Z,22.90
2022-10-02T12:33:34.825Z,22.90
2022-10-02T12:36:05.473Z,23.00
2022-10-02T12:38:32.056Z,23.00
2022-10-02T12:41:03.292Z,23.00
2022-10-02T12:43:54.447Z,23.10
2022-10-02T12:46:41.316Z,23.10
2022-10-02T12:49:28.491Z,23.20
2022-10-02T12:52:06.029Z,23.20
2022-10-02T12:54:44.706Z,23.20
2022-10-02T12:57:38.760Z,23.10
2022-10-02T13:00:15.624Z,23.10
2022-10-02T13:03:00.869Z,23.00
2022-10-02T13:05:28.715Z,22.90
2022-10-02T13:08:18.679Z,22.80
2022-10-02T13:11:06.990Z,22.80
2022-10-02T13:13:39.722Z,22.70
2022-10-02T13:16:22.908Z,22.70
2022-10-02T13:18:59.419Z,22.60
2022-10-02T13:21:35.636Z,22.60
2022-10-02T13:24:02.450Z,22.80
2022-10-02T13:26:44.689Z,22.50
2022-10-02T13:29:17.386Z,22.50
2022-10-02T13:31:43.982Z,22.50
2022-10-02T13:34:13.861Z,22.50
2022-10-02T13:36:52.726Z,22.40
2022-10-02T13:39:25.391Z,22.40
2022-10-02T13:41:58.623Z,22.50
2022-10-02T13:44:25.188Z,22.50
2022-10-02T13:47:08.495Z,22.50
2022-10-02T13:49:41.222Z,22.50
2022-10-02T13:52:07.816Z,22.80
2022-10-02T13:54:35.693Z,23.40
2022-10-02T13:57:20.766Z,24.70
2022-10-02T13:59:50.415Z,26.10
2022-10-02T14:02:21.012Z,27.00
2022-10-02T14:05:11.299Z,28.20
2022-10-02T14:07:40.896Z,29.30
2022-10-02T14:10:29.794Z,30.20
2022-10-02T14:13:06.463Z,30.90
2022-10-02T14:15:51.464Z,31.30
2022-10-02T14:18:26.464Z,31.60
2022-10-02T14:21:12.024Z,31.70
2022-10-02T14:23:50.704Z,31.60
2022-10-02T14:26:32.622Z,31.60
2022-10-02T14:29:08.809Z,31.50
2022-10-02T14:31:56.069Z,31.40
2022-10-02T14:34:42.962Z,31.30
2022-10-02T14:37:28.383Z,31.10
2022-10-02T14:39:57.184Z,30.30
2022-10-02T14:42:38.556Z,29.20
2022-10-02T14:45:23.729Z,28.20
2022-10-02T14:47:50.353Z,27.30
2022-10-02T14:50:17.073Z,26.50
2022-10-02T14:53:03.922Z,25.90
2022-10-02T14:55:44.144Z,25.40
2022-10-02T14:58:11.160Z,24.80
2022-10-02T15:00:37.713Z,24.70
2022-10-02T15:03:18.864Z,24.40
2022-10-02T15:05:51.574Z,24.20
2022-10-02T15:08:27.043Z,24.00
2022-10-02T15:10:53.879Z,23.80
2022-10-02T15:13:43.109Z,23.60
2022-10-02T15:16:34.227Z,23.60
2022-10-02T15:19:15.012Z,23.40
2022-10-02T15:21:46.882Z,23.30
2022-10-02T15:24:22.676Z,23.30
2022-10-02T15:26:50.814Z,23.20
2022-10-02T15:29:21.184Z,23.20
2022-10-02T15:32:06.829Z,23.20
2022-10-02T15:34:46.482Z,23.20
2022-10-02T15:37:21.889Z,23.20
2022-10-02T15:39:48.476Z,23.20
2022-10-02T15:42:17.726Z,23.10
2022-10-02T15:44:44.368Z,23.10
2022-10-02T15:47:10.920Z,23.10
2022-10-02T15:49:37.559Z,23.20
2022-10-02T15:52:22.606Z,23.20
2022-10-02T15:55:01.527Z,23.30
2022-10-02T15:57:43.538Z,23.20
2022-10-02T16:00:10.422Z,23.30
2022-10-02T16:02:49.540Z,23.30
2022-10-02T16:05:25.601Z,23.30
2022-10-02T16:08:07.428Z,23.40
2022-10-02T16:10:54.787Z,23.40
2022-10-02T16:13:48.110Z,23.30
2022-10-02T16:16:26.794Z,23.30
2022-10-02T16:19:02.423Z,23.30
2022-10-02T16:21:29.031Z,23.30
2022-10-02T16:24:11.686Z,23.30
2022-10-02T16:26:53.618Z,23.30
2022-10-02T16:29:20.900Z,23.30
2022-10-02T16:31:56.530Z,23.30
2022-10-02T16:34:29.333Z,23.30
2022-10-02T16:37:19.207Z,23.20
2022-10-02T16:39:54.722Z,23.20
2022-10-02T16:42:33.638Z,23.20
2022-10-02T16:45:13.457Z,23.20
2022-10-02T16:47:47.564Z,23.10
2022-10-02T16:50:17.255Z,23.10
2022-10-02T16:52:48.721Z,23.10
2022-10-02T16:55:15.292Z,23.10
2022-10-02T16:57:41.865Z,23.00
2022-10-02T17:00:14.723Z,23.00
2022-10-02T17:02:48.531Z,23.00
2022-10-02T17:05:25.053Z,22.90
2022-10-02T17:08:01.914Z,22.90
2022-10-02T17:10:37.462Z,22.80
2022-10-02T17:13:14.155Z,22.90
2022-10-02T17:15:52.316Z,22.80
2022-10-02T17:18:23.643Z,22.80
2022-10-02T17:20:53.615Z,22.80
2022-10-02T17:23:26.363Z,22.80
2022-10-02T17:26:11.778Z,22.70
2022-10-02T17:29:01.843Z,22.70
2022-10-02T17:31:35.571Z,22.70
2022-10-02T17:34:16.333Z,22.70
2022-10-02T17:37:07.720Z,22.60
2022-10-02T17:39:40.220Z,22.70
2022-10-02T17:42:09.887Z,22.60
2022-10-02T17:44:56.802Z,22.60
2022-10-02T17:47:46.528Z,22.60
2022-10-02T17:50:19.330Z,22.60
2022-10-02T17:53:09.061Z,22.60
2022-10-02T17:55:57.215Z,22.60
2022-10-02T17:58:46.237Z,22.60
2022-10-02T18:01:20.103Z,22.50
2022-10-02T18:03:53.027Z,22.50
2022-10-02T18:06:25.236Z,22.50
2022-10-02T18:08:51.995Z,22.50
2022-10-02T18:11:18.547Z,22.40
2022-10-02T18:13:49.856Z,22.50
2022-10-02T18:16:16.672Z,22.50
2022-10-02T18:19:01.849Z,22.50
2022-10-02T18:21:37.826Z,22.40
2022-10-02T18:24:04.703Z,22.50
2022-10-02T18:26:42.047Z,22.50
2022-10-02T18:29:17.796Z,22.50
2022-10-02T18:32:03.904Z,22.50
2022-10-02T18:34:49.247Z,22.50
2022-10-02T18:37:37.480Z,22.40
2022-10-02T18:40:07.098Z,22.40
2022-10-02T18:42:39.902Z,22.40
2022-10-02T18:45:13.851Z,22.40
2022-10-02T18:47:49.393Z,22.40
2022-10-02T18:50:28.870Z,22.40
2022-10-02T18:52:59.587Z,22.40
2022-10-02T18:55:38.253Z,22.40
2022-10-02T18:58:14.545Z,22.40
2022-10-02T19:00:47.257Z,22.40
2022-10-02T19:03:39.934Z,22.40
2022-10-02T19:06:26.728Z,22.40
2022-10-02T19:08:56.249Z,22.40
2022-10-02T19:11:30.771Z,22.40
2022-10-02T19:14:02.071Z,22.30
2022-10-02T19:16:30.109Z,22.30
2022-10-02T19:19:09.844Z,22.30
2022-10-02T19:21:37.509Z,22.30
2022-10-02T19:24:09.926Z,22.30
2022-10-02T19:26:41.475Z,22.30
2022-10-02T19:29:19.262Z,22.30
2022-10-02T19:31:46.538Z,22.30
2022-10-02T19:34:19.660Z,22.30
2022-10-02T19:36:50.283Z,22.30
2022-10-02T19:39:31.083Z,22.30
2022-10-02T19:41:59.516Z,22.30
2022-10-02T19:44:28.827Z,22.30
2022-10-02T19:46:57.618Z,22.30
2022-10-02T19:49:26.177Z,22.20
2022-10-02T19:51:53.265Z,22.30
2022-10-02T19:54:23.066Z,22.30
2022-10-02T19:56:50.794Z,22.30
2022-10-02T19:59:19.513Z,22.20
2022-10-02T20:01:53.012Z,22.20
2022-10-02T20:04:21.349Z,22.20
2022-10-02T20:06:53.063Z,22.20
2022-10-02T20:09:42.282Z,22.20
2022-10-02T20:12:28.354Z,22.20
2022-10-02T20:15:04.843Z,22.20
2022-10-02T20:17:32.421Z,22.20
2022-10-02T20:20:01.608Z,22.20
2022-10-02T20:23:01.734Z,22.10
2022-10-02T20:25:36.838Z,22.30
2022-10-02T20:28:10.193Z,22.10
2022-10-02T20:30:43.996Z,22.20
2022-10-02T20:33:18.171Z,22.20
2022-10-02T20:35:51.187Z,22.20
2022-10-02T20:38:27.433Z,22.10
2022-10-02T20:40:54.620Z,22.20
2022-10-02T20:43:21.224Z,22.20
2022-10-02T20:45:58.666Z,22.10
2022-10-02T20:49:03.527Z,22.20
2022-10-02T20:51:27.780Z,22.10
2022-10-02T20:53:57.487Z,22.10
2022-10-02T20:56:24.938Z,22.10
2022-10-02T20:58:51.515Z,22.20
2022-10-02T21:01:20.971Z,22.10
2022-10-02T21:03:53.641Z,22.10
2022-10-02T21:06:39.387Z,22.20
2022-10-02T21:09:24.560Z,22.20
2022-10-02T21:12:10.694Z,22.10
2022-10-02T21:14:44.624Z,22.10
2022-10-02T21:17:17.525Z,22.10
2022-10-02T21:19:47.151Z,22.10
2022-10-02T21:22:16.885Z,22.00
2022-10-02T21:24:43.979Z,22.10
2022-10-02T21:27:16.612Z,22.10
2022-10-02T21:29:48.386Z,22.10
2022-10-02T21:32:20.300Z,22.10
2022-10-02T21:34:56.022Z,22.10
2022-10-02T21:37:42.419Z,22.10
2022-10-02T21:40:09.048Z,22.00
2022-10-02T21:42:47.858Z,22.10
2022-10-02T21:45:27.006Z,22.00
2022-10-02T21:48:12.293Z,22.10
2022-10-02T21:50:58.375Z,22.10
2022-10-02T21:53:43.516Z,22.00
2022-10-02T21:56:31.480Z,22.00
2022-10-02T21:59:01.056Z,22.10
2022-10-02T22:01:51.803Z,22.00
2022-10-02T22:04:24.414Z,22.10
2022-10-02T22:06:57.956Z,22.00
2022-10-02T22:09:30.445Z,22.00
2022-10-02T22:12:03.627Z,22.00
2022-10-02T22:14:36.425Z,22.00
2022-10-02T22:17:24.134Z,22.00
2022-10-02T22:19:57.915Z,22.00
2022-10-02T22:22:30.251Z,22.10
2022-10-02T22:25:06.844Z,22.00
2022-10-02T22:27:44.237Z,22.00
2022-10-02T22:30:23.046Z,22.00
2022-10-02T22:33:10.827Z,22.00
2022-10-02T22:35:56.309Z,22.00
2022-10-02T22:38:22.885Z,22.00
2022-10-02T22:40:55.017Z,22.00
2022-10-02T22:43:29.055Z,21.90
2022-10-02T22:45:59.865Z,22.00
2022-10-02T22:48:38.364Z,22.00
2022-10-02T22:51:12.337Z,22.00
2022-10-02T22:53:44.415Z,21.90
2022-10-02T22:56:28.646Z,22.00
2022-10-02T22:58:58.672Z,21.90
2022-10-02T23:01:42.150Z,22.00
2022-10-02T23:04:18.823Z,21.90
2022-10-02T23:06:55.336Z,21.90
2022-10-02T23:09:21.919Z,21.90
2022-10-02T23:11:55.145Z,21.90
2022-10-02T23:14:24.843Z,21.90
2022-10-02T23:16:56.498Z,21.90
2022-10-02T23:19:30.061Z,21.90
2022-10-02T23:22:04.527Z,22.10
2022-10-02T23:24:57.584Z,22.00
2022-10-02T23:27:31.346Z,21.90
2022-10-02T23:30:11.628Z,21.90
2022-10-02T23:32:44.760Z,21.90
2022-10-02T23:35:12.797Z,21.90
2022-10-02T23:37:57.883Z,21.90
2022-10-02T23:40:47.538Z,21.90
2022-10-02T23:43:18.024Z,21.80
2022-10-02T23:45:51.768Z,21.90
2022-10-02T23:48:18.862Z,21.80
2022-10-02T23:50:54.456Z,22.00
2022-10-02T23:53:27.415Z,21.80
2022-10-02T23:56:08.307Z,21.90
2022-10-02T23:58:50.212Z,21.90
